Terminal Aerodrome Forecast
Issued by NWS Knoxville/Tri Cities, TN

Home | Current Version | Previous Version | Text Only | Print | Product List | Glossary On
Versions: 1 2 3 4 5 6 7 8 9 10 11 12 13 14 15 16 17 18 19 20 21 22 23 24 25 26 27 28 29 30 31 32
224
FTUS44 KMRX 051123
TAFTYS
TAF
KTYS 051123Z 0512/0612 26007KT P6SM SCT040 BKN070
     FM051400 29010G17KT P6SM VCSH BKN040
     FM060100 28008KT P6SM BKN050=

USA.gov is the U.S. government's official web portal to all federal, state and local government web resources and services.